sensor_id;sensor_type;location;lat;lon;timestamp;temperature;humidity
39277;DHT22;63149;48.086;-1.606;2023-04-08T05:00:31;6.30;99.90
39277;DHT22;63149;48.086;-1.606;2023-04-08T05:02:58;6.20;99.90
39277;DHT22;63149;48.086;-1.606;2023-04-08T05:05:25;6.20;99.90
39277;DHT22;63149;48.086;-1.606;2023-04-08T05:07:52;6.10;99.90
39277;DHT22;63149;48.086;-1.606;2023-04-08T05:10:19;6.20;99.90
39277;DHT22;63149;48.086;-1.606;2023-04-08T05:12:46;6.20;99.90
39277;DHT22;63149;48.086;-1.606;2023-04-08T05:15:13;6.10;99.90
39277;DHT22;63149;48.086;-1.606;2023-04-08T05:17:41;6.10;99.90
39277;DHT22;63149;48.086;-1.606;2023-04-08T05:20:09;6.20;99.90
39277;DHT22;63149;48.086;-1.606;2023-04-08T05:22:36;6.20;99.90
39277;DHT22;63149;48.086;-1.606;2023-04-08T05:25:03;6.20;99.90
39277;DHT22;63149;48.086;-1.606;2023-04-08T05:27:30;6.20;99.90
39277;DHT22;63149;48.086;-1.606;2023-04-08T05:29:57;6.20;99.90
39277;DHT22;63149;48.086;-1.606;2023-04-08T05:32:24;6.20;99.90
39277;DHT22;63149;48.086;-1.606;2023-04-08T05:34:53;6.30;99.90
39277;DHT22;63149;48.086;-1.606;2023-04-08T05:37:20;6.20;99.90
39277;DHT22;63149;48.086;-1.606;2023-04-08T05:39:46;6.30;99.90
39277;DHT22;63149;48.086;-1.606;2023-04-08T05:42:13;6.30;99.90
39277;DHT22;63149;48.086;-1.606;2023-04-08T05:44:40;6.30;99.90
39277;DHT22;63149;48.086;-1.606;2023-04-08T05:47:08;6.30;99.90
39277;DHT22;63149;48.086;-1.606;2023-04-08T05:49:35;6.20;99.90
39277;DHT22;63149;48.086;-1.606;2023-04-08T05:52:04;6.20;99.90
39277;DHT22;63149;48.086;-1.606;2023-04-08T05:54:31;6.20;99.90
39277;DHT22;63149;48.086;-1.606;2023-04-08T05:56:58;6.30;99.90
39277;DHT22;63149;48.086;-1.606;2023-04-08T05:59:25;6.30;99.90
39277;DHT22;63149;48.086;-1.606;2023-04-08T06:01:52;6.30;99.90
39277;DHT22;63149;48.086;-1.606;2023-04-08T06:04:21;6.40;99.90
39277;DHT22;63149;48.086;-1.606;2023-04-08T06:06:48;6.40;99.90
39277;DHT22;63149;48.086;-1.606;2023-04-08T06:09:16;6.40;99.90
39277;DHT22;63149;48.086;-1.606;2023-04-08T06:11:43;6.40;99.90
39277;DHT22;63149;48.086;-1.606;2023-04-08T06:14:11;6.40;99.90
39277;DHT22;63149;48.086;-1.606;2023-04-08T06:16:38;6.50;99.90
39277;DHT22;63149;48.086;-1.606;2023-04-08T06:19:05;6.50;99.90
39277;DHT22;63149;48.086;-1.606;2023-04-08T06:21:32;6.50;99.90
39277;DHT22;63149;48.086;-1.606;2023-04-08T06:23:59;6.50;99.90
39277;DHT22;63149;48.086;-1.606;2023-04-08T06:26:27;6.60;99.90
39277;DHT22;63149;48.086;-1.606;2023-04-08T06:28:54;6.60;99.90
39277;DHT22;63149;48.086;-1.606;2023-04-08T06:31:21;6.60;99.90
39277;DHT22;63149;48.086;-1.606;2023-04-08T06:33:49;6.70;99.90
39277;DHT22;63149;48.086;-1.606;2023-04-08T06:36:16;6.70;99.90
39277;DHT22;63149;48.086;-1.606;2023-04-08T06:38:43;6.80;99.90
39277;DHT22;63149;48.086;-1.606;2023-04-08T06:41:10;6.80;99.90
39277;DHT22;63149;48.086;-1.606;2023-04-08T06:43:39;6.80;99.90
39277;DHT22;63149;48.086;-1.606;2023-04-08T06:46:05;6.90;99.90
39277;DHT22;63149;48.086;-1.606;2023-04-08T06:48:33;6.90;99.90
39277;DHT22;63149;48.086;-1.606;2023-04-08T06:51:02;7.00;99.90
39277;DHT22;63149;48.086;-1.606;2023-04-08T06:53:29;7.10;99.90
39277;DHT22;63149;48.086;-1.606;2023-04-08T06:55:57;7.10;99.90
39277;DHT22;63149;48.086;-1.606;2023-04-08T06:58:24;7.20;99.90
39277;DHT22;63149;48.086;-1.606;2023-04-08T07:00:54;7.20;99.90
39277;DHT22;63149;48.086;-1.606;2023-04-08T07:03:21;7.30;99.90
39277;DHT22;63149;48.086;-1.606;2023-04-08T07:05:48;7.30;99.90
39277;DHT22;63149;48.086;-1.606;2023-04-08T07:08:15;7.40;99.90
39277;DHT22;63149;48.086;-1.606;2023-04-08T07:10:42;7.50;99.90
39277;DHT22;63149;48.086;-1.606;2023-04-08T07:13:09;7.50;99.90
39277;DHT22;63149;48.086;-1.606;2023-04-08T07:15:36;7.60;99.90
39277;DHT22;63149;48.086;-1.606;2023-04-08T07:18:05;7.70;99.90
39277;DHT22;63149;48.086;-1.606;2023-04-08T07:20:32;7.80;99.90
39277;DHT22;63149;48.086;-1.606;2023-04-08T07:23:02;7.80;99.90
39277;DHT22;63149;48.086;-1.606;2023-04-08T07:25:29;8.00;99.90
39277;DHT22;63149;48.086;-1.606;2023-04-08T07:27:56;8.10;99.90
39277;DHT22;63149;48.086;-1.606;2023-04-08T07:30:23;8.20;99.90
39277;DHT22;63149;48.086;-1.606;2023-04-08T07:32:50;8.20;99.90
39277;DHT22;63149;48.086;-1.606;2023-04-08T07:35:21;8.40;99.90
39277;DHT22;63149;48.086;-1.606;2023-04-08T07:37:50;8.40;99.90
39277;DHT22;63149;48.086;-1.606;2023-04-08T07:40:17;8.60;99.90
39277;DHT22;63149;48.086;-1.606;2023-04-08T07:42:45;8.70;99.90
39277;DHT22;63149;48.086;-1.606;2023-04-08T07:45:12;8.70;99.90
39277;DHT22;63149;48.086;-1.606;2023-04-08T07:47:39;8.90;99.90
39277;DHT22;63149;48.086;-1.606;2023-04-08T07:50:07;9.00;99.90
39277;DHT22;63149;48.086;-1.606;2023-04-08T07:52:35;9.10;99.90
39277;DHT22;63149;48.086;-1.606;2023-04-08T07:55:02;9.20;99.90
39277;DHT22;63149;48.086;-1.606;2023-04-08T07:57:30;9.30;99.90
39277;DHT22;63149;48.086;-1.606;2023-04-08T07:59:57;9.30;99.90
39277;DHT22;63149;48.086;-1.606;2023-04-08T08:02:24;9.40;99.90
39277;DHT22;63149;48.086;-1.606;2023-04-08T08:04:51;9.60;99.90
39277;DHT22;63149;48.086;-1.606;2023-04-08T08:07:18;9.70;99.90
39277;DHT22;63149;48.086;-1.606;2023-04-08T08:09:46;9.90;99.90
39277;DHT22;63149;48.086;-1.606;2023-04-08T08:12:13;10.00;99.90
39277;DHT22;63149;48.086;-1.606;2023-04-08T08:14:40;10.10;99.90
39277;DHT22;63149;48.086;-1.606;2023-04-08T08:17:07;10.30;99.90
39277;DHT22;63149;48.086;-1.606;2023-04-08T08:19:34;10.50;99.90
39277;DHT22;63149;48.086;-1.606;2023-04-08T08:22:01;10.70;99.90
39277;DHT22;63149;48.086;-1.606;2023-04-08T08:24:28;10.70;99.90
39277;DHT22;63149;48.086;-1.606;2023-04-08T08:26:56;10.90;99.90
39277;DHT22;63149;48.086;-1.606;2023-04-08T08:29:23;11.10;99.90
39277;DHT22;63149;48.086;-1.606;2023-04-08T08:31:50;11.20;99.90
39277;DHT22;63149;48.086;-1.606;2023-04-08T08:34:17;11.50;99.90
39277;DHT22;63149;48.086;-1.606;2023-04-08T08:36:44;11.50;99.90
39277;DHT22;63149;48.086;-1.606;2023-04-08T08:39:11;11.80;99.90
39277;DHT22;63149;48.086;-1.606;2023-04-08T08:41:38;12.00;99.90
39277;DHT22;63149;48.086;-1.606;2023-04-08T08:44:09;12.20;99.90
39277;DHT22;63149;48.086;-1.606;2023-04-08T08:46:40;12.50;99.90
39277;DHT22;63149;48.086;-1.606;2023-04-08T08:49:08;12.90;99.90
39277;DHT22;63149;48.086;-1.606;2023-04-08T08:51:35;13.20;99.90
39277;DHT22;63149;48.086;-1.606;2023-04-08T08:54:03;13.40;99.90
39277;DHT22;63149;48.086;-1.606;2023-04-08T08:56:32;13.70;99.90
39277;DHT22;63149;48.086;-1.606;2023-04-08T08:58:59;14.10;99.90
39277;DHT22;63149;48.086;-1.606;2023-04-08T09:01:32;14.20;99.90
39277;DHT22;63149;48.086;-1.606;2023-04-08T09:04:13;13.80;99.90
39277;DHT22;63149;48.086;-1.606;2023-04-08T09:06:41;13.80;99.90
39277;DHT22;63149;48.086;-1.606;2023-04-08T09:09:08;13.70;99.90
39277;DHT22;63149;48.086;-1.606;2023-04-08T09:11:39;13.80;99.90
39277;DHT22;63149;48.086;-1.606;2023-04-08T09:14:17;14.00;99.90
39277;DHT22;63149;48.086;-1.606;2023-04-08T09:16:45;14.50;99.90
39277;DHT22;63149;48.086;-1.606;2023-04-08T09:19:12;14.70;99.90
39277;DHT22;63149;48.086;-1.606;2023-04-08T09:21:40;15.20;99.90
39277;DHT22;63149;48.086;-1.606;2023-04-08T09:24:07;15.30;99.90
39277;DHT22;63149;48.086;-1.606;2023-04-08T09:26:35;15.50;99.90
39277;DHT22;63149;48.086;-1.606;2023-04-08T09:29:04;15.60;99.90
39277;DHT22;63149;48.086;-1.606;2023-04-08T09:31:32;15.80;99.90
39277;DHT22;63149;48.086;-1.606;2023-04-08T09:34:10;15.90;99.90
39277;DHT22;63149;48.086;-1.606;2023-04-08T09:36:37;16.10;99.90
39277;DHT22;63149;48.086;-1.606;2023-04-08T09:39:05;16.40;99.90
39277;DHT22;63149;48.086;-1.606;2023-04-08T09:41:33;16.70;99.90
39277;DHT22;63149;48.086;-1.606;2023-04-08T09:44:02;17.10;99.90
39277;DHT22;63149;48.086;-1.606;2023-04-08T09:46:32;17.80;99.90
39277;DHT22;63149;48.086;-1.606;2023-04-08T09:49:05;17.70;99.90
39277;DHT22;63149;48.086;-1.606;2023-04-08T09:51:42;17.60;99.90
39277;DHT22;63149;48.086;-1.606;2023-04-08T09:54:13;17.20;99.90
39277;DHT22;63149;48.086;-1.606;2023-04-08T09:56:43;17.90;99.90
39277;DHT22;63149;48.086;-1.606;2023-04-08T09:59:13;18.50;99.90
39277;DHT22;63149;48.086;-1.606;2023-04-08T10:01:45;18.50;99.90
39277;DHT22;63149;48.086;-1.606;2023-04-08T10:04:15;19.00;99.90
39277;DHT22;63149;48.086;-1.606;2023-04-08T10:06:47;18.20;99.90
39277;DHT22;63149;48.086;-1.606;2023-04-08T10:09:19;17.70;99.90
39277;DHT22;63149;48.086;-1.606;2023-04-08T10:11:46;18.30;99.90
39277;DHT22;63149;48.086;-1.606;2023-04-08T10:14:13;18.50;99.90
39277;DHT22;63149;48.086;-1.606;2023-04-08T10:16:40;18.70;99.90
39277;DHT22;63149;48.086;-1.606;2023-04-08T10:19:36;19.10;99.90
39277;DHT22;63149;48.086;-1.606;2023-04-08T10:22:47;19.00;99.90
39277;DHT22;63149;48.086;-1.606;2023-04-08T10:25:31;18.90;99.90
39277;DHT22;63149;48.086;-1.606;2023-04-08T10:27:58;19.00;99.90
39277;DHT22;63149;48.086;-1.606;2023-04-08T10:30:39;19.30;99.90
39277;DHT22;63149;48.086;-1.606;2023-04-08T10:33:10;19.60;99.90
39277;DHT22;63149;48.086;-1.606;2023-04-08T10:35:40;20.10;99.90
39277;DHT22;63149;48.086;-1.606;2023-04-08T10:38:09;20.10;99.90
39277;DHT22;63149;48.086;-1.606;2023-04-08T10:40:38;20.70;99.90
39277;DHT22;63149;48.086;-1.606;2023-04-08T10:43:06;20.90;99.90
39277;DHT22;63149;48.086;-1.606;2023-04-08T10:45:33;20.60;99.90
39277;DHT22;63149;48.086;-1.606;2023-04-08T10:48:22;21.10;99.90
39277;DHT22;63149;48.086;-1.606;2023-04-08T10:50:53;20.60;99.90
39277;DHT22;63149;48.086;-1.606;2023-04-08T10:53:29;20.90;99.90
39277;DHT22;63149;48.086;-1.606;2023-04-08T10:56:03;21.00;99.90
39277;DHT22;63149;48.086;-1.606;2023-04-08T10:58:30;21.40;99.90
39277;DHT22;63149;48.086;-1.606;2023-04-08T11:01:02;21.70;99.90
39277;DHT22;63149;48.086;-1.606;2023-04-08T11:03:31;22.00;99.90
39277;DHT22;63149;48.086;-1.606;2023-04-08T11:05:59;22.00;99.90
39277;DHT22;63149;48.086;-1.606;2023-04-08T11:08:28;22.20;99.90
39277;DHT22;63149;48.086;-1.606;2023-04-08T11:10:55;21.80;99.90
39277;DHT22;63149;48.086;-1.606;2023-04-08T11:13:23;21.60;99.90
39277;DHT22;63149;48.086;-1.606;2023-04-08T11:15:51;22.50;99.90
39277;DHT22;63149;48.086;-1.606;2023-04-08T11:18:18;22.40;99.90
39277;DHT22;63149;48.086;-1.606;2023-04-08T11:20:47;22.10;99.90
39277;DHT22;63149;48.086;-1.606;2023-04-08T11:23:16;22.20;99.90
39277;DHT22;63149;48.086;-1.606;2023-04-08T11:25:45;22.50;98.50
39277;DHT22;63149;48.086;-1.606;2023-04-08T11:28:13;21.90;99.10
39277;DHT22;63149;48.086;-1.606;2023-04-08T11:30:40;22.40;99.90
39277;DHT22;63149;48.086;-1.606;2023-04-08T11:33:08;22.30;99.20
39277;DHT22;63149;48.086;-1.606;2023-04-08T11:35:39;22.20;99.40
39277;DHT22;63149;48.086;-1.606;2023-04-08T11:38:07;22.60;99.90
39277;DHT22;63149;48.086;-1.606;2023-04-08T11:40:35;22.80;95.10
39277;DHT22;63149;48.086;-1.606;2023-04-08T11:43:09;23.00;97.50
39277;DHT22;63149;48.086;-1.606;2023-04-08T11:45:37;22.70;94.70
39277;DHT22;63149;48.086;-1.606;2023-04-08T11:48:08;22.50;91.10
39277;DHT22;63149;48.086;-1.606;2023-04-08T11:50:35;22.60;93.10
39277;DHT22;63149;48.086;-1.606;2023-04-08T11:53:02;21.40;91.40
39277;DHT22;63149;48.086;-1.606;2023-04-08T11:55:30;21.30;92.70
39277;DHT22;63149;48.086;-1.606;2023-04-08T11:58:01;22.20;94.00
39277;DHT22;63149;48.086;-1.606;2023-04-08T12:00:30;22.90;94.90
39277;DHT22;63149;48.086;-1.606;2023-04-08T12:02:57;23.50;94.30
39277;DHT22;63149;48.086;-1.606;2023-04-08T12:05:24;23.90;93.70
39277;DHT22;63149;48.086;-1.606;2023-04-08T12:07:51;23.90;89.70
39277;DHT22;63149;48.086;-1.606;2023-04-08T12:10:18;24.10;91.70
39277;DHT22;63149;48.086;-1.606;2023-04-08T12:12:45;24.00;81.60
39277;DHT22;63149;48.086;-1.606;2023-04-08T12:15:12;24.60;85.20
39277;DHT22;63149;48.086;-1.606;2023-04-08T12:17:41;25.10;85.10
39277;DHT22;63149;48.086;-1.606;2023-04-08T12:20:09;25.80;77.00
39277;DHT22;63149;48.086;-1.606;2023-04-08T12:22:36;25.30;78.30
39277;DHT22;63149;48.086;-1.606;2023-04-08T12:25:04;24.00;74.00
39277;DHT22;63149;48.086;-1.606;2023-04-08T12:27:31;24.10;78.50
39277;DHT22;63149;48.086;-1.606;2023-04-08T12:29:59;23.90;77.80
39277;DHT22;63149;48.086;-1.606;2023-04-08T12:32:26;24.10;78.50
39277;DHT22;63149;48.086;-1.606;2023-04-08T12:34:54;24.30;77.80
39277;DHT22;63149;48.086;-1.606;2023-04-08T12:37:21;24.40;75.00
39277;DHT22;63149;48.086;-1.606;2023-04-08T12:39:48;23.10;73.00
39277;DHT22;63149;48.086;-1.606;2023-04-08T12:42:16;22.70;80.40
39277;DHT22;63149;48.086;-1.606;2023-04-08T12:44:43;22.50;79.00
39277;DHT22;63149;48.086;-1.606;2023-04-08T12:47:10;21.70;78.50
39277;DHT22;63149;48.086;-1.606;2023-04-08T12:49:36;21.70;82.40
39277;DHT22;63149;48.086;-1.606;2023-04-08T12:52:05;22.10;80.70
39277;DHT22;63149;48.086;-1.606;2023-04-08T12:54:32;21.30;79.60
39277;DHT22;63149;48.086;-1.606;2023-04-08T12:56:58;21.20;83.40
39277;DHT22;63149;48.086;-1.606;2023-04-08T12:59:26;21.80;85.10
39277;DHT22;63149;48.086;-1.606;2023-04-08T13:01:52;21.70;88.30
39277;DHT22;63149;48.086;-1.606;2023-04-08T13:04:19;20.90;89.80
39277;DHT22;63149;48.086;-1.606;2023-04-08T13:06:46;20.40;91.40
39277;DHT22;63149;48.086;-1.606;2023-04-08T13:09:15;19.20;90.80
39277;DHT22;63149;48.086;-1.606;2023-04-08T13:11:41;18.80;91.90
39277;DHT22;63149;48.086;-1.606;2023-04-08T13:14:08;18.60;93.00
39277;DHT22;63149;48.086;-1.606;2023-04-08T13:16:37;18.50;95.60
39277;DHT22;63149;48.086;-1.606;2023-04-08T13:19:03;18.20;97.00
39277;DHT22;63149;48.086;-1.606;2023-04-08T13:21:31;18.20;98.30
39277;DHT22;63149;48.086;-1.606;2023-04-08T13:23:57;17.90;97.10
39277;DHT22;63149;48.086;-1.606;2023-04-08T13:26:26;17.90;99.90
39277;DHT22;63149;48.086;-1.606;2023-04-08T13:28:53;17.60;99.90
39277;DHT22;63149;48.086;-1.606;2023-04-08T13:31:20;17.30;99.90
39277;DHT22;63149;48.086;-1.606;2023-04-08T13:33:47;17.30;99.90
39277;DHT22;63149;48.086;-1.606;2023-04-08T13:36:14;17.40;99.90
39277;DHT22;63149;48.086;-1.606;2023-04-08T13:38:40;17.00;99.90
39277;DHT22;63149;48.086;-1.606;2023-04-08T13:41:08;16.90;99.90
39277;DHT22;63149;48.086;-1.606;2023-04-08T13:43:36;16.90;99.90
39277;DHT22;63149;48.086;-1.606;2023-04-08T13:46:03;16.70;99.90
39277;DHT22;63149;48.086;-1.606;2023-04-08T13:48:30;16.70;99.90
39277;DHT22;63149;48.086;-1.606;2023-04-08T13:50:57;16.60;99.90
39277;DHT22;63149;48.086;-1.606;2023-04-08T13:53:23;16.50;99.90
39277;DHT22;63149;48.086;-1.606;2023-04-08T13:55:50;16.50;99.90
39277;DHT22;63149;48.086;-1.606;2023-04-08T13:58:20;16.60;99.90
39277;DHT22;63149;48.086;-1.606;2023-04-08T14:00:48;16.50;99.90
39277;DHT22;63149;48.086;-1.606;2023-04-08T14:03:16;16.50;99.90
39277;DHT22;63149;48.086;-1.606;2023-04-08T14:05:42;16.60;99.90
39277;DHT22;63149;48.086;-1.606;2023-04-08T14:08:10;16.70;99.90
39277;DHT22;63149;48.086;-1.606;2023-04-08T14:10:37;16.80;99.90
39277;DHT22;63149;48.086;-1.606;2023-04-08T14:13:05;16.80;99.90
39277;DHT22;63149;48.086;-1.606;2023-04-08T14:15:32;16.80;99.90
39277;DHT22;63149;48.086;-1.606;2023-04-08T14:18:00;16.70;99.90
39277;DHT22;63149;48.086;-1.606;2023-04-08T14:20:27;16.50;99.90
39277;DHT22;63149;48.086;-1.606;2023-04-08T14:22:54;16.50;99.90
39277;DHT22;63149;48.086;-1.606;2023-04-08T14:25:21;16.50;99.90
39277;DHT22;63149;48.086;-1.606;2023-04-08T14:27:48;16.50;99.90
39277;DHT22;63149;48.086;-1.606;2023-04-08T14:30:15;16.50;99.90
39277;DHT22;63149;48.086;-1.606;2023-04-08T14:32:42;16.30;99.90
39277;DHT22;63149;48.086;-1.606;2023-04-08T14:35:10;16.00;99.90
39277;DHT22;63149;48.086;-1.606;2023-04-08T14:37:37;16.10;99.90
39277;DHT22;63149;48.086;-1.606;2023-04-08T14:40:06;16.30;99.90
39277;DHT22;63149;48.086;-1.606;2023-04-08T14:42:33;16.40;99.90
39277;DHT22;63149;48.086;-1.606;2023-04-08T14:45:00;16.40;99.90
39277;DHT22;63149;48.086;-1.606;2023-04-08T14:47:27;16.40;99.90
39277;DHT22;63149;48.086;-1.606;2023-04-08T14:49:55;16.40;99.90
39277;DHT22;63149;48.086;-1.606;2023-04-08T14:52:23;16.40;99.90
39277;DHT22;63149;48.086;-1.606;2023-04-08T14:54:50;16.50;99.90
39277;DHT22;63149;48.086;-1.606;2023-04-08T14:57:18;16.40;99.90
39277;DHT22;63149;48.086;-1.606;2023-04-08T14:59:45;16.40;99.90
39277;DHT22;63149;48.086;-1.606;2023-04-08T15:02:12;16.40;99.90
39277;DHT22;63149;48.086;-1.606;2023-04-08T15:04:39;16.40;99.90
39277;DHT22;63149;48.086;-1.606;2023-04-08T15:07:06;16.30;99.90
39277;DHT22;63149;48.086;-1.606;2023-04-08T15:09:34;16.40;99.90
39277;DHT22;63149;48.086;-1.606;2023-04-08T15:12:01;16.50;99.90
39277;DHT22;63149;48.086;-1.606;2023-04-08T15:14:29;16.20;99.90
39277;DHT22;63149;48.086;-1.606;2023-04-08T15:16:56;16.30;99.90
39277;DHT22;63149;48.086;-1.606;2023-04-08T15:19:23;16.30;99.90
39277;DHT22;63149;48.086;-1.606;2023-04-08T15:21:50;16.40;99.90
39277;DHT22;63149;48.086;-1.606;2023-04-08T15:24:17;16.50;99.90
39277;DHT22;63149;48.086;-1.606;2023-04-08T15:26:46;16.50;99.90
39277;DHT22;63149;48.086;-1.606;2023-04-08T15:29:13;16.60;99.90
39277;DHT22;63149;48.086;-1.606;2023-04-08T15:31:40;16.60;99.90
39277;DHT22;63149;48.086;-1.606;2023-04-08T15:34:07;16.40;99.90
39277;DHT22;63149;48.086;-1.606;2023-04-08T15:36:34;16.30;99.90
39277;DHT22;63149;48.086;-1.606;2023-04-08T15:39:02;16.30;99.90
39277;DHT22;63149;48.086;-1.606;2023-04-08T15:41:30;16.30;99.90
39277;DHT22;63149;48.086;-1.606;2023-04-08T15:43:59;16.30;99.90
39277;DHT22;63149;48.086;-1.606;2023-04-08T15:46:26;16.30;99.90
39277;DHT22;63149;48.086;-1.606;2023-04-08T15:48:53;16.20;99.90
39277;DHT22;63149;48.086;-1.606;2023-04-08T15:51:20;16.20;99.90
39277;DHT22;63149;48.086;-1.606;2023-04-08T15:53:47;16.30;99.90
39277;DHT22;63149;48.086;-1.606;2023-04-08T15:56:16;16.20;99.90
39277;DHT22;63149;48.086;-1.606;2023-04-08T15:58:43;16.20;99.90
39277;DHT22;63149;48.086;-1.606;2023-04-08T16:01:12;16.20;99.90
39277;DHT22;63149;48.086;-1.606;2023-04-08T16:03:38;16.20;99.90
39277;DHT22;63149;48.086;-1.606;2023-04-08T16:06:06;16.20;99.90
39277;DHT22;63149;48.086;-1.606;2023-04-08T16:08:33;16.20;99.90
39277;DHT22;63149;48.086;-1.606;2023-04-08T16:11:01;16.30;99.90
39277;DHT22;63149;48.086;-1.606;2023-04-08T16:13:28;16.20;99.90
39277;DHT22;63149;48.086;-1.606;2023-04-08T16:15:55;16.30;99.90
39277;DHT22;63149;48.086;-1.606;2023-04-08T16:18:24;16.20;99.90
39277;DHT22;63149;48.086;-1.606;2023-04-08T16:20:51;16.30;99.90
39277;DHT22;63149;48.086;-1.606;2023-04-08T16:23:18;16.30;99.90
39277;DHT22;63149;48.086;-1.606;2023-04-08T16:25:45;16.20;99.90
39277;DHT22;63149;48.086;-1.606;2023-04-08T16:28:12;16.20;99.90
39277;DHT22;63149;48.086;-1.606;2023-04-08T16:30:39;16.10;99.90
39277;DHT22;63149;48.086;-1.606;2023-04-08T16:33:08;16.10;99.90
39277;DHT22;63149;48.086;-1.606;2023-04-08T16:35:36;16.00;99.90
39277;DHT22;63149;48.086;-1.606;2023-04-08T16:38:04;16.00;99.90
39277;DHT22;63149;48.086;-1.606;2023-04-08T16:40:31;15.90;99.90
39277;DHT22;63149;48.086;-1.606;2023-04-08T16:42:58;15.90;99.90
39277;DHT22;63149;48.086;-1.606;2023-04-08T16:45:27;15.80;99.90
39277;DHT22;63149;48.086;-1.606;2023-04-08T16:47:54;15.80;99.90
39277;DHT22;63149;48.086;-1.606;2023-04-08T16:50:21;15.90;99.90
39277;DHT22;63149;48.086;-1.606;2023-04-08T16:52:50;15.80;99.90
39277;DHT22;63149;48.086;-1.606;2023-04-08T16:55:17;15.70;99.90
39277;DHT22;63149;48.086;-1.606;2023-04-08T16:57:44;15.70;99.90
39277;DHT22;63149;48.086;-1.606;2023-04-08T17:00:11;15.70;99.90
39277;DHT22;63149;48.086;-1.606;2023-04-08T17:02:38;15.70;99.90
39277;DHT22;63149;48.086;-1.606;2023-04-08T17:05:06;15.60;99.90
39277;DHT22;63149;48.086;-1.606;2023-04-08T17:07:33;15.60;99.90
39277;DHT22;63149;48.086;-1.606;2023-04-08T17:10:02;15.60;99.90
39277;DHT22;63149;48.086;-1.606;2023-04-08T17:12:29;15.50;99.90
39277;DHT22;63149;48.086;-1.606;2023-04-08T17:14:56;15.50;99.90
39277;DHT22;63149;48.086;-1.606;2023-04-08T17:17:23;15.50;99.90
39277;DHT22;63149;48.086;-1.606;2023-04-08T17:19:49;15.50;99.90
39277;DHT22;63149;48.086;-1.606;2023-04-08T17:22:17;15.40;99.90
39277;DHT22;63149;48.086;-1.606;2023-04-08T17:24:44;15.40;99.90
39277;DHT22;63149;48.086;-1.606;2023-04-08T17:27:12;15.40;99.90
39277;DHT22;63149;48.086;-1.606;2023-04-08T17:29:39;15.30;99.90
39277;DHT22;63149;48.086;-1.606;2023-04-08T17:32:06;15.30;99.90
39277;DHT22;63149;48.086;-1.606;2023-04-08T17:34:33;15.20;99.90
39277;DHT22;63149;48.086;-1.606;2023-04-08T17:37:01;15.20;99.90
39277;DHT22;63149;48.086;-1.606;2023-04-08T17:39:29;15.10;99.90
39277;DHT22;63149;48.086;-1.606;2023-04-08T17:41:56;15.10;99.90
39277;DHT22;63149;48.086;-1.606;2023-04-08T17:44:25;15.00;99.90
39277;DHT22;63149;48.086;-1.606;2023-04-08T17:46:54;15.00;99.90
39277;DHT22;63149;48.086;-1.606;2023-04-08T17:49:21;14.90;99.90
39277;DHT22;63149;48.086;-1.606;2023-04-08T17:51:48;14.80;99.90
39277;DHT22;63149;48.086;-1.606;2023-04-08T17:54:15;14.90;99.90
39277;DHT22;63149;48.086;-1.606;2023-04-08T17:56:42;14.80;99.90
39277;DHT22;63149;48.086;-1.606;2023-04-08T17:59:09;14.80;99.90
39277;DHT22;63149;48.086;-1.606;2023-04-08T18:01:37;14.80;99.90
39277;DHT22;63149;48.086;-1.606;2023-04-08T18:04:04;14.70;99.90
39277;DHT22;63149;48.086;-1.606;2023-04-08T18:06:33;14.70;99.90
39277;DHT22;63149;48.086;-1.606;2023-04-08T18:09:00;14.70;99.90
39277;DHT22;63149;48.086;-1.606;2023-04-08T18:11:28;14.60;99.90
39277;DHT22;63149;48.086;-1.606;2023-04-08T18:13:55;14.60;99.90
39277;DHT22;63149;48.086;-1.606;2023-04-08T18:16:22;14.50;99.90
39277;DHT22;63149;48.086;-1.606;2023-04-08T18:18:50;14.50;99.90
39277;DHT22;63149;48.086;-1.606;2023-04-08T18:21:17;14.40;99.90
39277;DHT22;63149;48.086;-1.606;2023-04-08T18:23:44;14.40;99.90
39277;DHT22;63149;48.086;-1.606;2023-04-08T18:26:12;14.30;99.90
39277;DHT22;63149;48.086;-1.606;2023-04-08T18:28:39;14.30;99.90
39277;DHT22;63149;48.086;-1.606;2023-04-08T18:31:06;14.30;99.90
39277;DHT22;63149;48.086;-1.606;2023-04-08T18:33:33;14.20;99.90
39277;DHT22;63149;48.086;-1.606;2023-04-08T18:36:06;14.20;99.90
39277;DHT22;63149;48.086;-1.606;2023-04-08T18:38:33;14.10;99.90
39277;DHT22;63149;48.086;-1.606;2023-04-08T18:41:01;14.00;99.90
39277;DHT22;63149;48.086;-1.606;2023-04-08T18:43:28;13.90;99.90
39277;DHT22;63149;48.086;-1.606;2023-04-08T18:45:55;13.90;99.90
39277;DHT22;63149;48.086;-1.606;2023-04-08T18:48:22;13.80;99.90
39277;DHT22;63149;48.086;-1.606;2023-04-08T18:50:49;13.70;99.90
39277;DHT22;63149;48.086;-1.606;2023-04-08T18:53:17;13.50;99.90
39277;DHT22;63149;48.086;-1.606;2023-04-08T18:55:44;13.50;99.90
39277;DHT22;63149;48.086;-1.606;2023-04-08T18:58:11;13.40;99.90
39277;DHT22;63149;48.086;-1.606;2023-04-08T19:00:38;13.30;99.90
39277;DHT22;63149;48.086;-1.606;2023-04-08T19:03:06;13.30;99.90
39277;DHT22;63149;48.086;-1.606;2023-04-08T19:05:33;13.20;99.90
39277;DHT22;63149;48.086;-1.606;2023-04-08T19:08:01;13.10;99.90
39277;DHT22;63149;48.086;-1.606;2023-04-08T19:10:30;13.00;99.90
39277;DHT22;63149;48.086;-1.606;2023-04-08T19:12:57;12.90;99.90
39277;DHT22;63149;48.086;-1.606;2023-04-08T19:15:24;12.90;99.90
39277;DHT22;63149;48.086;-1.606;2023-04-08T19:17:51;12.80;99.90
39277;DHT22;63149;48.086;-1.606;2023-04-08T19:20:18;12.70;99.90
39277;DHT22;63149;48.086;-1.606;2023-04-08T19:22:45;12.60;99.90
39277;DHT22;63149;48.086;-1.606;2023-04-08T19:25:14;12.60;99.90
39277;DHT22;63149;48.086;-1.606;2023-04-08T19:27:42;12.50;99.90
39277;DHT22;63149;48.086;-1.606;2023-04-08T19:30:10;12.40;99.90
39277;DHT22;63149;48.086;-1.606;2023-04-08T19:32:37;12.30;99.90
39277;DHT22;63149;48.086;-1.606;2023-04-08T19:35:05;12.30;99.90
39277;DHT22;63149;48.086;-1.606;2023-04-08T19:37:32;12.20;99.90
39277;DHT22;63149;48.086;-1.606;2023-04-08T19:39:59;12.20;99.90
39277;DHT22;63149;48.086;-1.606;2023-04-08T19:42:26;12.20;99.90
39277;DHT22;63149;48.086;-1.606;2023-04-08T19:44:55;12.10;99.90
39277;DHT22;63149;48.086;-1.606;2023-04-08T19:47:21;12.10;99.90
39277;DHT22;63149;48.086;-1.606;2023-04-08T19:49:48;12.00;99.90
39277;DHT22;63149;48.086;-1.606;2023-04-08T19:52:15;11.90;99.90
39277;DHT22;63149;48.086;-1.606;2023-04-08T19:54:42;11.90;99.90
39277;DHT22;63149;48.086;-1.606;2023-04-08T19:57:09;11.90;99.90
39277;DHT22;63149;48.086;-1.606;2023-04-08T19:59:36;11.90;99.90
39277;DHT22;63149;48.086;-1.606;2023-04-08T20:02:05;11.80;99.90
39277;DHT22;63149;48.086;-1.606;2023-04-08T20:04:32;11.80;99.90
39277;DHT22;63149;48.086;-1.606;2023-04-08T20:07:00;11.70;99.90
39277;DHT22;63149;48.086;-1.606;2023-04-08T20:09:28;11.80;99.90
39277;DHT22;63149;48.086;-1.606;2023-04-08T20:11:56;11.70;99.90
39277;DHT22;63149;48.086;-1.606;2023-04-08T20:14:28;11.60;99.90
39277;DHT22;63149;48.086;-1.606;2023-04-08T20:16:55;11.70;99.90
39277;DHT22;63149;48.086;-1.606;2023-04-08T20:19:24;11.70;99.90
39277;DHT22;63149;48.086;-1.606;2023-04-08T20:21:51;11.60;99.90
39277;DHT22;63149;48.086;-1.606;2023-04-08T20:24:19;11.60;99.90